Time;durP1;ratioP1;P1;durP2;ratioP2;P2;SDS_P1;SDS_P2;PMS_P1;PMS_P2;Temp;Humidity;BMP_temperature;BMP_pressure;BME280_temperature;BME280_humidity;BME280_pressure;Samples;Min_cycle;Max_cycle;Signal;HPM_P1;HPM_P2
2022/08/04 00:02:08;;;;;;;17.02;8.55;;;19.10;99.90;;;;;;5008042;28;20077;-38
2022/08/04 00:04:40;;;;;;;20.25;8.98;;;19.10;99.90;;;;;;5008123;28;20078;-38
2022/08/04 00:07:30;;;;;;;15.73;9.85;;;19.00;99.90;;;;;;5008184;28;20034;-38
2022/08/04 00:10:01;;;;;;;21.95;9.70;;;19.00;99.90;;;;;;5007439;28;20152;-38
2022/08/04 00:12:33;;;;;;;44.63;10.93;;;18.90;99.90;;;;;;5007316;28;20050;-38
2022/08/04 00:15:00;;;;;;;15.52;9.35;;;19.00;99.90;;;;;;5007344;28;20343;-38
2022/08/04 00:18:00;;;;;;;23.08;10.43;;;18.70;99.90;;;;;;5007965;28;20052;-38
2022/08/04 00:20:29;;;;;;;18.42;8.95;;;18.70;99.90;;;;;;5007297;28;20058;-38
2022/08/04 00:22:58;;;;;;;15.45;8.70;;;18.60;99.90;;;;;;5006927;28;20535;-38
2022/08/04 00:25:24;;;;;;;18.95;9.15;;;18.60;99.90;;;;;;5007532;28;20168;-38
2022/08/04 00:27:50;;;;;;;20.13;9.80;;;18.50;99.90;;;;;;5007236;28;20037;-38
2022/08/04 00:30:16;;;;;;;23.67;10.13;;;18.50;99.90;;;;;;5007674;28;20400;-38
2022/08/04 00:32:42;;;;;;;18.63;8.90;;;18.70;99.90;;;;;;5007374;28;20050;-38
2022/08/04 00:35:09;;;;;;;18.77;9.75;;;18.40;99.90;;;;;;5007229;28;20084;-38
2022/08/04 00:37:37;;;;;;;21.23;9.65;;;18.40;99.90;;;;;;5007396;28;20427;-38
2022/08/04 00:40:16;;;;;;;18.20;9.45;;;18.40;99.90;;;;;;5006714;28;20050;-38
2022/08/04 00:43:09;;;;;;;21.20;9.88;;;18.40;99.90;;;;;;5006609;28;20048;-38
2022/08/04 00:45:46;;;;;;;15.90;9.05;;;18.40;99.90;;;;;;5006741;28;20050;-38
2022/08/04 00:48:32;;;;;;;19.50;9.35;;;18.30;99.90;;;;;;5007014;28;20125;-38
2022/08/04 00:51:36;;;;;;;15.50;9.05;;;18.40;99.90;;;;;;5006518;28;20050;-38
2022/08/04 00:54:24;;;;;;;17.58;9.00;;;18.40;99.90;;;;;;5006728;28;20045;-38
2022/08/04 00:57:10;;;;;;;15.65;8.57;;;18.40;99.90;;;;;;5006489;28;20377;-38
2022/08/04 01:00:12;;;;;;;14.85;9.43;;;18.30;99.90;;;;;;5006959;28;20054;-38
2022/08/04 01:03:17;;;;;;;23.10;9.63;;;18.40;99.90;;;;;;5006552;28;20399;-38
2022/08/04 01:06:34;;;;;;;16.65;9.00;;;18.30;99.90;;;;;;5006665;28;20046;-37
2022/08/04 01:09:21;;;;;;;19.38;9.50;;;18.30;99.90;;;;;;4996744;28;20535;-38
2022/08/04 01:11:59;;;;;;;20.35;9.60;;;18.30;99.90;;;;;;5006817;28;20465;-38
2022/08/04 01:14:54;;;;;;;18.40;10.00;;;18.20;99.90;;;;;;5006674;28;20054;-38
2022/08/04 01:17:27;;;;;;;15.82;8.98;;;18.20;99.90;;;;;;5006635;28;20058;-37
2022/08/04 01:20:03;;;;;;;18.45;9.60;;;18.40;99.90;;;;;;5004483;28;20428;-38
2022/08/04 01:22:31;;;;;;;17.63;9.80;;;18.10;99.90;;;;;;5009769;28;20038;-38
2022/08/04 01:25:18;;;;;;;16.65;9.38;;;18.00;99.90;;;;;;5012702;28;20046;-38
2022/08/04 01:28:21;;;;;;;18.65;9.80;;;18.10;99.90;;;;;;5013045;28;20080;-38
2022/08/04 01:30:49;;;;;;;18.35;9.40;;;18.10;99.90;;;;;;5012590;28;20072;-38
2022/08/04 01:33:16;;;;;;;22.60;11.18;;;18.20;99.90;;;;;;5012854;28;20050;-38
2022/08/04 01:36:00;;;;;;;20.70;10.40;;;18.10;99.90;;;;;;5012852;28;20095;-38
2022/08/04 01:38:38;;;;;;;14.70;9.18;;;18.00;99.90;;;;;;5013040;28;20057;-38
2022/08/04 01:41:12;;;;;;;17.30;9.23;;;17.90;99.90;;;;;;5012493;28;20080;-38
2022/08/04 01:43:42;;;;;;;16.00;8.40;;;17.90;99.90;;;;;;5012769;28;20100;-38
2022/08/04 01:46:12;;;;;;;17.58;9.73;;;18.20;99.90;;;;;;5012558;28;20046;-38
2022/08/04 01:48:40;;;;;;;19.15;8.50;;;17.80;99.90;;;;;;5011445;28;20045;-38
2022/08/04 01:51:08;;;;;;;11.63;8.02;;;17.80;99.90;;;;;;5012693;28;20408;-37
2022/08/04 01:53:35;;;;;;;14.82;8.73;;;17.70;99.90;;;;;;5011498;28;20947;-37
2022/08/04 01:56:03;;;;;;;13.93;8.45;;;17.70;99.90;;;;;;5012616;28;20045;-37
2022/08/04 01:58:30;;;;;;;14.73;8.50;;;17.60;99.90;;;;;;5013100;28;20053;-37
2022/08/04 02:01:07;;;;;;;17.63;9.38;;;17.40;99.90;;;;;;5012577;28;20046;-37
2022/08/04 02:03:34;;;;;;;16.58;9.07;;;17.40;99.90;;;;;;5012578;28;20435;-37
2022/08/04 02:06:15;;;;;;;21.73;10.13;;;17.40;99.90;;;;;;5010984;28;20048;-38
2022/08/04 02:08:50;;;;;;;16.80;8.98;;;17.30;99.90;;;;;;5012716;28;20089;-38
2022/08/04 02:11:20;;;;;;;15.63;10.02;;;17.30;99.90;;;;;;5012979;28;20111;-38
2022/08/04 02:14:39;;;;;;;17.10;9.20;;;17.20;99.90;;;;;;5012459;28;20093;-38
2022/08/04 02:17:09;;;;;;;15.40;8.90;;;17.20;99.90;;;;;;5012095;28;20586;-38
2022/08/04 02:19:56;;;;;;;14.23;8.07;;;17.10;99.90;;;;;;5012427;28;20049;-38
2022/08/04 02:22:24;;;;;;;11.52;7.40;;;17.10;99.90;;;;;;5012448;28;20583;-38
2022/08/04 02:24:57;;;;;;;14.75;8.88;;;17.10;99.90;;;;;;5012815;28;20037;-38
2022/08/04 02:27:29;;;;;;;13.82;7.13;;;17.00;99.90;;;;;;5013112;28;20046;-38
2022/08/04 02:29:58;;;;;;;14.30;7.38;;;17.00;99.90;;;;;;5013030;28;20041;-38
2022/08/04 02:32:32;;;;;;;13.15;7.60;;;16.90;99.90;;;;;;5012710;28;20054;-38
2022/08/04 02:35:07;;;;;;;14.10;8.23;;;16.90;99.90;;;;;;5008316;28;20499;-38
2022/08/04 02:37:33;;;;;;;19.42;9.90;;;16.90;99.90;;;;;;5009794;28;20042;-38
2022/08/04 02:40:03;;;;;;;18.13;10.98;;;16.80;99.90;;;;;;5007568;28;20142;-38
2022/08/04 02:42:28;;;;;;;16.90;9.27;;;16.80;99.90;;;;;;5009335;28;20042;-38
2022/08/04 02:44:57;;;;;;;21.15;10.52;;;16.80;99.90;;;;;;5009150;28;20034;-37
2022/08/04 02:47:25;;;;;;;17.63;10.57;;;16.90;99.90;;;;;;5009028;28;20385;-38
2022/08/04 02:49:51;;;;;;;16.95;8.93;;;16.80;99.90;;;;;;5008641;28;20046;-38
2022/08/04 02:52:22;;;;;;;18.67;8.77;;;16.80;99.90;;;;;;5008621;28;20053;-38
2022/08/04 02:54:51;;;;;;;18.80;10.32;;;16.80;99.90;;;;;;5009015;28;20052;-38
2022/08/04 02:57:20;;;;;;;16.27;9.05;;;16.70;99.90;;;;;;5009193;28;20045;-38
2022/08/04 03:00:13;;;;;;;21.52;10.52;;;16.70;99.90;;;;;;5008824;28;20144;-38
2022/08/04 03:03:03;;;;;;;14.40;8.77;;;16.70;99.90;;;;;;5008635;28;20042;-38
2022/08/04 03:05:38;;;;;;;17.95;9.27;;;16.70;99.90;;;;;;5008566;28;20450;-38
2022/08/04 03:08:09;;;;;;;15.90;9.57;;;16.70;99.90;;;;;;5008518;28;20044;-38
2022/08/04 03:10:56;;;;;;;15.85;9.05;;;16.60;99.90;;;;;;5008719;28;20049;-38
2022/08/04 03:13:57;;;;;;;16.33;9.10;;;16.60;99.90;;;;;;5008419;28;20045;-38
2022/08/04 03:17:07;;;;;;;15.93;8.77;;;16.60;99.90;;;;;;5008664;28;20442;-38
2022/08/04 03:19:57;;;;;;;20.17;9.95;;;16.60;99.90;;;;;;5003062;28;20421;-38
2022/08/04 03:22:32;;;;;;;14.13;9.10;;;16.60;99.90;;;;;;5007430;28;20057;-38
2022/08/04 03:25:35;;;;;;;19.10;10.57;;;16.70;99.90;;;;;;5008044;28;20046;-38
2022/08/04 03:28:38;;;;;;;21.48;9.65;;;16.70;99.90;;;;;;5008231;28;20052;-37
2022/08/04 03:31:07;;;;;;;16.52;9.50;;;16.70;99.90;;;;;;5008070;28;20042;-38
2022/08/04 03:34:15;;;;;;;16.83;9.38;;;16.90;99.90;;;;;;5008012;28;20041;-38
2022/08/04 03:37:03;;;;;;;21.13;10.27;;;16.70;99.90;;;;;;5008610;28;20144;-38
2022/08/04 03:39:41;;;;;;;19.10;8.98;;;16.70;99.90;;;;;;5008149;28;20046;-38
2022/08/04 03:42:18;;;;;;;10.93;7.20;;;16.70;99.90;;;;;;5008227;28;20042;-37
2022/08/04 03:45:08;;;;;;;11.30;7.50;;;16.60;99.90;;;;;;5007869;28;20042;-38
2022/08/04 03:47:52;;;;;;;11.57;7.55;;;16.60;99.90;;;;;;5008250;28;20046;-38
2022/08/04 03:53:50;;;;;;;12.80;6.72;;;16.50;99.90;;;;;;5007976;28;20606;-37
2022/08/04 03:56:28;;;;;;;9.03;5.20;;;16.40;99.90;;;;;;5007614;28;20045;-38
2022/08/04 03:58:59;;;;;;;7.25;4.13;;;16.40;99.90;;;;;;5007761;28;20072;-37
2022/08/04 04:02:13;;;;;;;7.20;4.70;;;16.30;99.90;;;;;;5007299;28;20042;-38
2022/08/04 04:05:00;;;;;;;5.55;3.22;;;16.30;99.90;;;;;;4987296;28;20061;-38
2022/08/04 04:07:38;;;;;;;6.55;2.92;;;16.30;99.90;;;;;;5007388;28;20045;-37
2022/08/04 04:10:25;;;;;;;3.25;2.80;;;16.20;99.90;;;;;;5007539;28;20104;-37
2022/08/04 04:13:08;;;;;;;5.05;3.08;;;16.20;99.90;;;;;;5007742;28;20116;-38
2022/08/04 04:15:52;;;;;;;4.85;3.30;;;16.20;99.90;;;;;;5008386;28;20050;-38
2022/08/04 04:18:55;;;;;;;9.25;3.60;;;16.20;99.90;;;;;;5007364;28;20046;-37
2022/08/04 04:21:24;;;;;;;7.32;3.35;;;16.20;99.90;;;;;;5007142;28;20562;-37
2022/08/04 04:24:10;;;;;;;10.02;3.90;;;16.20;99.90;;;;;;5007669;28;20149;-38
2022/08/04 04:26:35;;;;;;;10.00;3.90;;;16.30;99.90;;;;;;5007497;28;20392;-37
2022/08/04 04:29:18;;;;;;;5.82;3.55;;;16.50;99.90;;;;;;5007376;28;20053;-38
2022/08/04 04:32:16;;;;;;;6.88;3.22;;;16.40;99.90;;;;;;5007171;28;20369;-38
2022/08/04 04:35:00;;;;;;;6.43;3.70;;;16.40;99.90;;;;;;5007088;28;20045;-38
2022/08/04 04:37:46;;;;;;;9.90;3.92;;;16.50;99.90;;;;;;5007018;28;20124;-38
2022/08/04 04:40:43;;;;;;;10.60;4.68;;;16.60;99.90;;;;;;5007038;28;20045;-37
2022/08/04 04:43:25;;;;;;;5.88;3.85;;;16.60;99.90;;;;;;5007273;28;20050;-38
2022/08/04 04:46:02;;;;;;;9.55;3.58;;;16.70;99.90;;;;;;5006860;28;20120;-38
2022/08/04 04:48:40;;;;;;;5.78;2.85;;;16.80;99.90;;;;;;5006542;28;20137;-38
2022/08/04 04:51:15;;;;;;;4.85;3.28;;;16.90;99.90;;;;;;5006756;28;20099;-38
2022/08/04 04:53:53;;;;;;;8.13;3.78;;;16.90;99.90;;;;;;5006947;28;20042;-38
2022/08/04 04:56:32;;;;;;;4.50;2.70;;;16.90;99.90;;;;;;5006324;28;20553;-38
2022/08/04 04:59:00;;;;;;;7.45;3.97;;;16.90;99.90;;;;;;5007041;28;20088;-38
2022/08/04 05:01:43;;;;;;;11.88;4.20;;;16.90;99.90;;;;;;5006624;28;20488;-38
2022/08/04 05:04:34;;;;;;;8.15;3.55;;;17.00;99.90;;;;;;5006893;28;20046;-38
2022/08/04 05:07:32;;;;;;;10.48;5.63;;;17.00;99.90;;;;;;5006583;28;20145;-38
2022/08/04 05:10:25;;;;;;;14.65;5.35;;;17.00;99.90;;;;;;5006304;28;20499;-38
2022/08/04 05:13:03;;;;;;;9.40;4.82;;;17.10;99.90;;;;;;5006814;28;20048;-38
2022/08/04 05:15:33;;;;;;;8.13;3.50;;;17.10;99.90;;;;;;5006096;28;20137;-38
2022/08/04 05:18:01;;;;;;;6.22;3.42;;;17.30;99.90;;;;;;4988917;28;20049;-38
2022/08/04 05:20:36;;;;;;;9.23;4.60;;;17.40;99.90;;;;;;5006102;28;20046;-38
2022/08/04 05:23:12;;;;;;;8.15;4.50;;;17.60;99.90;;;;;;5006684;28;20042;-38
2022/08/04 05:25:52;;;;;;;6.75;4.20;;;17.80;99.90;;;;;;5006461;28;20046;-38
2022/08/04 05:28:23;;;;;;;7.88;4.38;;;18.00;99.90;;;;;;5006359;28;20103;-38
2022/08/04 05:30:56;;;;;;;6.20;5.33;;;18.60;99.90;;;;;;5006892;28;20042;-38
2022/08/04 05:33:40;;;;;;;11.20;5.68;;;18.50;99.90;;;;;;5006526;28;20038;-38
2022/08/04 05:36:10;;;;;;;13.23;5.63;;;18.80;99.90;;;;;;5006501;28;20046;-38
2022/08/04 05:38:41;;;;;;;8.70;4.88;;;19.00;99.90;;;;;;5004968;28;20463;-38
2022/08/04 05:41:09;;;;;;;13.43;6.65;;;19.50;99.90;;;;;;5006359;28;20034;-38
2022/08/04 05:43:37;;;;;;;12.73;6.95;;;20.00;99.90;;;;;;5006139;28;20048;-38
2022/08/04 05:46:03;;;;;;;11.48;6.10;;;20.60;99.90;;;;;;5006091;28;20045;-38
2022/08/04 05:48:31;;;;;;;12.90;7.15;;;20.50;99.90;;;;;;5006332;28;20042;-38
2022/08/04 05:50:58;;;;;;;9.70;6.20;;;20.40;99.90;;;;;;5006015;28;20038;-38
2022/08/04 05:53:25;;;;;;;11.80;7.43;;;20.50;99.90;;;;;;5006365;28;20045;-38
2022/08/04 05:55:51;;;;;;;10.70;6.45;;;20.60;99.90;;;;;;5005942;28;20100;-38
2022/08/04 05:58:18;;;;;;;11.48;6.68;;;20.80;99.90;;;;;;5004364;28;20050;-38
2022/08/04 06:00:45;;;;;;;12.60;7.13;;;21.20;99.90;;;;;;5005958;28;20037;-38
2022/08/04 06:03:13;;;;;;;11.40;7.40;;;21.90;99.90;;;;;;5005973;28;20558;-38
2022/08/04 06:05:41;;;;;;;14.15;7.65;;;22.00;99.90;;;;;;5005890;28;20045;-38
2022/08/04 06:08:07;;;;;;;16.30;7.22;;;21.90;99.90;;;;;;5006000;28;20037;-38
2022/08/04 06:10:36;;;;;;;15.25;6.28;;;22.00;99.90;;;;;;5008898;28;20093;-38
2022/08/04 06:13:06;;;;;;;10.73;6.10;;;22.10;99.90;;;;;;5009580;28;20050;-38
2022/08/04 06:15:36;;;;;;;12.75;6.53;;;22.50;99.90;;;;;;5009171;28;20133;-38
2022/08/04 06:18:05;;;;;;;9.40;6.13;;;23.30;99.90;;;;;;5009284;28;20518;-38
2022/08/04 06:20:35;;;;;;;9.90;5.82;;;23.90;99.90;;;;;;5009386;28;20038;-38
2022/08/04 06:23:06;;;;;;;14.98;6.60;;;23.70;99.90;;;;;;5010454;28;20050;-38
2022/08/04 06:25:40;;;;;;;11.18;5.68;;;23.80;99.90;;;;;;5009577;28;20072;-38
2022/08/04 06:28:06;;;;;;;9.55;5.47;;;23.70;99.90;;;;;;5010268;28;20547;-38
2022/08/04 06:30:33;;;;;;;9.38;5.63;;;23.80;99.90;;;;;;5009761;28;20052;-38
2022/08/04 06:33:01;;;;;;;9.65;5.22;;;24.00;99.90;;;;;;5009066;28;20127;-38
2022/08/04 06:35:29;;;;;;;9.15;4.45;;;24.00;99.90;;;;;;5008893;28;20052;-38
2022/08/04 06:37:56;;;;;;;8.38;4.78;;;24.20;99.90;;;;;;5009183;28;20049;-38
2022/08/04 06:40:23;;;;;;;10.55;5.43;;;24.40;99.90;;;;;;5009817;28;20050;-38
2022/08/04 06:42:51;;;;;;;10.55;4.55;;;24.70;99.90;;;;;;5009256;28;20042;-38
2022/08/04 06:45:19;;;;;;;10.27;3.95;;;25.00;99.90;;;;;;5009310;28;20053;-38
2022/08/04 06:47:46;;;;;;;7.35;3.42;;;25.40;99.90;;;;;;5007346;28;20125;-38
2022/08/04 06:50:12;;;;;;;12.00;3.85;;;25.70;99.90;;;;;;5009504;28;20057;-38
2022/08/04 06:52:39;;;;;;;10.05;3.83;;;26.10;99.90;;;;;;5009038;28;20081;-39
2022/08/04 06:55:06;;;;;;;9.73;3.40;;;27.30;99.90;;;;;;5008918;28;20049;-38
2022/08/04 06:57:33;;;;;;;8.77;3.22;;;28.90;97.70;;;;;;5009133;28;20132;-38
2022/08/04 07:00:09;;;;;;;9.13;3.20;;;30.40;94.10;;;;;;5008899;28;20099;-38
2022/08/04 07:02:43;;;;;;;8.25;2.40;;;31.40;90.20;;;;;;5008483;28;20038;-38
2022/08/04 07:05:10;;;;;;;8.13;2.95;;;32.30;85.40;;;;;;5008717;28;20061;-38
2022/08/04 07:07:37;;;;;;;5.35;1.92;;;33.30;81.50;;;;;;5008864;28;20045;-38
2022/08/04 07:10:04;;;;;;;7.30;2.75;;;34.00;78.30;;;;;;5008231;28;20590;-38
2022/08/04 07:12:31;;;;;;;8.93;3.00;;;34.00;74.80;;;;;;5008390;28;20068;-38
2022/08/04 07:14:57;;;;;;;8.35;3.13;;;33.60;73.90;;;;;;5008393;28;20065;-38
2022/08/04 07:17:25;;;;;;;6.40;2.90;;;32.70;74.40;;;;;;5008542;28;20571;-38
2022/08/04 07:19:51;;;;;;;8.73;2.72;;;31.90;75.30;;;;;;5007587;28;20137;-38
2022/08/04 07:22:18;;;;;;;7.97;2.38;;;31.20;77.20;;;;;;5008271;28;20042;-39
2022/08/04 07:24:44;;;;;;;7.97;2.40;;;31.20;77.20;;;;;;5007907;28;20361;-38
2022/08/04 07:27:10;;;;;;;11.80;2.58;;;30.60;79.10;;;;;;5008035;28;20092;-39
2022/08/04 07:29:37;;;;;;;7.18;2.20;;;30.30;80.40;;;;;;5007610;28;20125;-38
2022/08/04 07:32:04;;;;;;;6.35;2.40;;;30.00;81.60;;;;;;5007777;28;20050;-39
2022/08/04 07:34:30;;;;;;;5.80;2.00;;;29.90;81.60;;;;;;5008014;28;20384;-39
2022/08/04 07:36:59;;;;;;;7.90;2.17;;;30.10;82.00;;;;;;5008022;28;20085;-38
2022/08/04 07:39:27;;;;;;;6.45;2.28;;;30.20;81.40;;;;;;5008045;28;20050;-39
2022/08/04 07:41:54;;;;;;;7.93;2.00;;;30.20;82.00;;;;;;5007575;28;20042;-38
2022/08/04 07:44:20;;;;;;;6.68;2.00;;;30.10;82.10;;;;;;5007790;28;20399;-38
2022/08/04 07:46:46;;;;;;;8.60;2.08;;;30.80;80.90;;;;;;5007550;28;20097;-39
2022/08/04 07:49:13;;;;;;;6.05;1.50;;;32.00;78.30;;;;;;5007689;28;20508;-38
2022/08/04 07:51:39;;;;;;;4.38;1.20;;;33.00;74.90;;;;;;5007349;28;20046;-39
2022/08/04 07:54:09;;;;;;;9.00;2.28;;;34.00;71.20;;;;;;5007465;28;20116;-39
2022/08/04 07:56:36;;;;;;;7.95;2.50;;;34.80;67.60;;;;;;5006840;28;20182;-39
2022/08/04 07:59:03;;;;;;;5.20;1.38;;;35.30;65.50;;;;;;5007664;28;20077;-39
2022/08/04 08:01:29;;;;;;;7.25;1.50;;;35.80;64.30;;;;;;5007104;28;20439;-39
2022/08/04 08:03:57;;;;;;;7.25;1.98;;;35.70;64.00;;;;;;5007308;28;20118;-39
2022/08/04 08:06:23;;;;;;;6.63;1.58;;;35.80;63.90;;;;;;5007720;28;20048;-39
2022/08/04 08:08:49;;;;;;;4.55;1.13;;;35.80;63.30;;;;;;5007061;28;20045;-39
2022/08/04 08:11:15;;;;;;;7.45;1.90;;;35.80;62.60;;;;;;5007585;28;20570;-36
2022/08/04 08:13:42;;;;;;;3.35;0.60;;;35.80;62.10;;;;;;5006532;28;20053;-38
2022/08/04 08:16:08;;;;;;;2.97;0.80;;;35.90;60.70;;;;;;5007178;28;20124;-37
2022/08/04 08:18:34;;;;;;;5.18;1.58;;;36.10;59.90;;;;;;4991705;28;20587;-37
2022/08/04 08:21:00;;;;;;;6.50;1.38;;;36.00;60.20;;;;;;5004858;28;20642;-37
2022/08/04 08:23:30;;;;;;;7.85;1.60;;;35.90;60.50;;;;;;5004656;28;20749;-37
2022/08/04 08:25:56;;;;;;;6.32;1.02;;;36.10;60.00;;;;;;5004228;28;20048;-37
2022/08/04 08:28:22;;;;;;;5.28;1.55;;;36.60;59.40;;;;;;5003992;28;20499;-38
2022/08/04 08:30:48;;;;;;;3.47;0.63;;;36.90;58.70;;;;;;5002446;28;20408;-43
2022/08/04 08:33:15;;;;;;;2.55;0.60;;;37.30;57.40;;;;;;4995700;28;20041;-54
2022/08/04 08:36:02;;;;;;;3.72;0.77;;;37.50;56.30;;;;;;4998146;28;20491;-44
2022/08/04 08:38:53;;;;;;;4.40;0.60;;;37.70;55.70;;;;;;5002782;28;20049;-46
2022/08/04 08:41:44;;;;;;;5.25;0.85;;;37.80;56.40;;;;;;5003449;28;20050;-56
2022/08/04 08:44:48;;;;;;;3.13;0.63;;;38.50;57.30;;;;;;5002003;28;20041;-55
2022/08/04 08:47:34;;;;;;;6.68;1.00;;;38.90;55.10;;;;;;5002399;28;20384;-38
2022/08/04 08:50:05;;;;;;;3.88;0.70;;;38.40;54.10;;;;;;5001700;28;20484;-48
2022/08/04 08:52:53;;;;;;;6.75;0.98;;;38.20;53.80;;;;;;5003861;28;20042;-46
2022/08/04 08:55:31;;;;;;;6.55;1.50;;;38.10;54.40;;;;;;5002186;28;20081;-54
2022/08/04 08:58:09;;;;;;;6.68;1.38;;;38.20;54.50;;;;;;5002599;28;20060;-54
2022/08/04 09:00:50;;;;;;;8.40;1.90;;;38.40;54.50;;;;;;5002537;28;20144;-55
2022/08/04 09:03:21;;;;;;;;;;;38.50;53.80;;;;;;5002718;28;20034;-55
2022/08/04 09:05:54;;;;;;;7.55;2.28;;;38.30;56.10;;;;;;5001880;28;19928;-52
2022/08/04 09:08:49;;;;;;;10.85;2.25;;;38.20;54.00;;;;;;5002877;28;20496;-45
2022/08/04 09:11:20;;;;;;;5.45;2.08;;;38.10;54.70;;;;;;5002068;28;20049;-50
2022/08/04 09:14:22;;;;;;;8.13;2.25;;;38.10;54.10;;;;;;5002128;28;20058;-55
2022/08/04 09:17:02;;;;;;;8.07;2.42;;;38.90;55.20;;;;;;5002762;28;20682;-57
2022/08/04 09:19:35;;;;;;;4.68;1.77;;;39.70;53.80;;;;;;5000676;28;20042;-53
2022/08/04 09:22:15;;;;;;;4.55;1.60;;;40.10;52.10;;;;;;5002584;28;20041;-49
2022/08/04 09:24:52;;;;;;;6.95;2.50;;;40.20;51.50;;;;;;5003631;28;20488;-41
2022/08/04 09:27:37;;;;;;;6.63;2.25;;;40.40;51.50;;;;;;5003198;28;20053;-48
2022/08/04 09:30:12;;;;;;;6.97;2.00;;;40.80;51.60;;;;;;5002994;28;20119;-42
2022/08/04 09:32:37;;;;;;;7.55;1.58;;;41.50;50.30;;;;;;5002726;28;20096;-42
2022/08/04 09:35:40;;;;;;;7.85;1.80;;;42.00;49.90;;;;;;5002685;28;20045;-38
2022/08/04 09:38:34;;;;;;;4.75;1.23;;;42.00;49.70;;;;;;5004491;28;20046;-38
2022/08/04 09:41:19;;;;;;;7.57;1.30;;;41.50;50.10;;;;;;5003542;28;20049;-38
2022/08/04 09:43:58;;;;;;;6.25;1.73;;;42.10;50.80;;;;;;5006101;28;20107;-38
2022/08/04 09:46:55;;;;;;;5.38;1.70;;;43.20;49.40;;;;;;5008360;28;20121;-38
2022/08/04 09:49:35;;;;;;;6.85;1.38;;;44.00;48.60;;;;;;5007601;28;20053;-38
2022/08/04 09:52:27;;;;;;;7.65;1.48;;;43.60;47.50;;;;;;5007746;28;20423;-38
2022/08/04 09:55:16;;;;;;;4.07;1.35;;;43.80;47.40;;;;;;5008053;28;20145;-39
2022/08/04 09:57:51;;;;;;;6.60;1.35;;;43.80;47.00;;;;;;5009906;28;20057;-37
2022/08/04 10:00:19;;;;;;;3.95;0.77;;;43.30;46.10;;;;;;5006865;28;20092;-51
2022/08/04 10:02:54;;;;;;;7.40;1.40;;;42.30;47.80;;;;;;5003047;28;20530;-40
2022/08/04 10:05:31;;;;;;;6.10;1.65;;;40.60;51.60;;;;;;5007781;28;20144;-43
2022/08/04 10:08:28;;;;;;;5.40;1.10;;;39.70;53.00;;;;;;5009269;28;20068;-41
2022/08/04 10:11:08;;;;;;;4.57;1.10;;;38.10;52.40;;;;;;5009010;28;20052;-40
2022/08/04 10:14:12;;;;;;;5.47;1.40;;;37.20;53.70;;;;;;5009743;28;20057;-41
2022/08/04 10:17:06;;;;;;;4.18;1.20;;;36.50;55.10;;;;;;4999164;28;20180;-41
2022/08/04 10:19:37;;;;;;;6.63;1.02;;;35.90;56.30;;;;;;5010259;28;20052;-42
2022/08/04 10:22:20;;;;;;;6.50;1.50;;;35.50;57.00;;;;;;5010183;28;20033;-41
2022/08/04 10:25:14;;;;;;;3.92;1.13;;;35.20;58.00;;;;;;5010192;28;20041;-41
2022/08/04 10:27:49;;;;;;;3.72;0.80;;;34.50;69.00;;;;;;5010689;28;20052;-40
2022/08/04 10:30:17;;;;;;;9.15;2.05;;;34.00;60.00;;;;;;5010597;28;20427;-41
2022/08/04 10:33:09;;;;;;;6.22;1.52;;;34.10;61.60;;;;;;5009841;28;20745;-41
2022/08/04 10:35:46;;;;;;;7.18;1.90;;;34.80;61.30;;;;;;5010048;28;20046;-41
2022/08/04 10:38:28;;;;;;;5.60;1.50;;;35.00;61.00;;;;;;5009709;28;20049;-41
2022/08/04 10:41:16;;;;;;;7.85;1.70;;;35.20;59.90;;;;;;5009950;28;20740;-41
2022/08/04 10:44:04;;;;;;;5.43;1.38;;;35.30;61.60;;;;;;5009670;28;20054;-40
2022/08/04 10:46:38;;;;;;;4.63;2.20;;;35.70;60.20;;;;;;5010158;28;20136;-42
2022/08/04 10:49:13;;;;;;;6.70;1.30;;;36.00;61.50;;;;;;5009226;28;20121;-40
2022/08/04 10:52:15;;;;;;;4.65;1.40;;;36.40;59.10;;;;;;5009710;28;20041;-41
2022/08/04 10:54:58;;;;;;;5.38;1.20;;;36.30;58.50;;;;;;5004301;28;20061;-41
2022/08/04 10:57:47;;;;;;;4.32;1.25;;;35.80;58.20;;;;;;5010270;28;20049;-42
2022/08/04 11:00:18;;;;;;;5.22;1.38;;;35.30;58.80;;;;;;5009903;28;20069;-41
2022/08/04 11:02:57;;;;;;;7.35;1.67;;;34.90;59.40;;;;;;5009999;28;20041;-41
2022/08/04 11:05:25;;;;;;;5.82;1.60;;;34.50;60.10;;;;;;5009873;28;20042;-41
2022/08/04 11:08:00;;;;;;;8.10;2.00;;;34.10;60.70;;;;;;5009479;28;20052;-40
2022/08/04 11:10:31;;;;;;;6.47;2.05;;;33.80;68.90;;;;;;5009157;28;20049;-42
2022/08/04 11:13:05;;;;;;;2.78;0.90;;;33.50;78.00;;;;;;5009198;28;20395;-41
2022/08/04 11:15:39;;;;;;;5.25;0.80;;;33.10;66.20;;;;;;5008958;28;20049;-41
2022/08/04 11:18:10;;;;;;;4.65;1.17;;;32.70;66.10;;;;;;5009411;28;20077;-43
2022/08/04 11:20:55;;;;;;;5.70;1.02;;;32.50;65.50;;;;;;5009214;28;20072;-41
2022/08/04 11:23:28;;;;;;;3.53;0.88;;;32.30;65.20;;;;;;5009528;28;20042;-41
2022/08/04 11:26:14;;;;;;;5.20;1.23;;;32.20;65.20;;;;;;5009155;28;20773;-41
2022/08/04 11:29:08;;;;;;;5.35;0.93;;;32.20;64.90;;;;;;5008057;28;20054;-41
2022/08/04 11:31:39;;;;;;;4.85;1.25;;;32.30;64.70;;;;;;5007324;28;20112;-41
2022/08/04 11:34:21;;;;;;;5.15;1.02;;;32.30;65.00;;;;;;5008413;28;20041;-41
2022/08/04 11:37:10;;;;;;;5.30;0.90;;;32.20;65.50;;;;;;5009117;28;20042;-40
2022/08/04 11:39:51;;;;;;;4.03;0.93;;;31.90;65.90;;;;;;5007979;28;20583;-41
2022/08/04 11:42:47;;;;;;;3.30;1.45;;;31.60;66.50;;;;;;5008256;28;20392;-41
2022/08/04 11:45:18;;;;;;;6.47;0.70;;;31.40;66.70;;;;;;5008682;28;20042;-42
2022/08/04 11:48:00;;;;;;;6.32;0.77;;;31.30;67.10;;;;;;5009008;28;20501;-41
2022/08/04 11:50:31;;;;;;;4.85;0.88;;;31.20;66.50;;;;;;5009404;28;20050;-41
2022/08/04 11:52:58;;;;;;;5.32;0.80;;;31.20;67.50;;;;;;5009308;28;20037;-41
2022/08/04 11:55:26;;;;;;;4.00;0.90;;;31.10;67.70;;;;;;5008638;28;20559;-42
2022/08/04 11:57:53;;;;;;;5.47;1.13;;;31.20;67.90;;;;;;5008317;28;20492;-41
2022/08/04 12:00:19;;;;;;;5.35;0.68;;;31.20;67.60;;;;;;5008827;28;20054;-41
2022/08/04 12:03:23;;;;;;;4.93;1.17;;;31.00;67.30;;;;;;5008847;28;20056;-41
2022/08/04 12:06:09;;;;;;;5.65;0.60;;;30.80;66.80;;;;;;5008519;28;20042;-41
2022/08/04 12:09:15;;;;;;;6.20;1.17;;;30.50;67.70;;;;;;5004118;28;20050;-41
2022/08/04 12:11:51;;;;;;;9.57;1.08;;;30.20;69.00;;;;;;5007555;28;20828;-40
2022/08/04 12:14:23;;;;;;;6.55;1.23;;;29.90;69.70;;;;;;5007129;28;20124;-42
2022/08/04 12:17:03;;;;;;;7.43;1.20;;;29.70;70.40;;;;;;5007807;28;20053;-41
2022/08/04 12:19:49;;;;;;;4.80;0.75;;;29.50;71.60;;;;;;5007639;28;20095;-41
2022/08/04 12:22:19;;;;;;;8.23;1.25;;;29.30;72.40;;;;;;5007401;28;20535;-41
2022/08/04 12:24:51;;;;;;;6.97;1.00;;;29.00;73.60;;;;;;5008069;28;20052;-42
2022/08/04 12:27:23;;;;;;;2.55;0.60;;;28.80;74.80;;;;;;5008395;28;20049;-41
2022/08/04 12:29:51;;;;;;;4.15;0.70;;;28.60;75.40;;;;;;5008406;28;20077;-41
2022/08/04 12:32:31;;;;;;;5.40;0.77;;;28.60;83.00;;;;;;5007638;28;20392;-41
2022/08/04 12:35:07;;;;;;;5.10;1.00;;;28.40;84.50;;;;;;5007322;28;20502;-41
2022/08/04 12:37:37;;;;;;;6.22;1.15;;;28.40;81.20;;;;;;5007942;28;20054;-41
2022/08/04 12:40:11;;;;;;;5.03;1.52;;;28.30;84.30;;;;;;5007918;28;20124;-41
2022/08/04 12:43:21;;;;;;;4.50;0.70;;;28.10;84.70;;;;;;5007911;28;20491;-42
2022/08/04 12:45:52;;;;;;;3.55;0.65;;;28.00;90.90;;;;;;4979049;28;20377;-41
2022/08/04 12:48:20;;;;;;;5.88;0.68;;;27.70;87.80;;;;;;5007484;28;20068;-43
2022/08/04 12:50:56;;;;;;;2.42;0.47;;;27.50;89.40;;;;;;5007204;28;20054;-40
2022/08/04 12:53:27;;;;;;;2.10;0.47;;;27.20;82.30;;;;;;5007096;28;20076;-41
2022/08/04 12:55:54;;;;;;;7.25;1.08;;;27.00;83.20;;;;;;5007453;28;20088;-42
2022/08/04 12:58:23;;;;;;;2.47;0.43;;;26.90;84.00;;;;;;5007691;28;20038;-42
2022/08/04 13:00:59;;;;;;;5.28;0.50;;;26.70;84.50;;;;;;5007407;28;20667;-41
2022/08/04 13:03:35;;;;;;;1.55;0.22;;;26.50;85.40;;;;;;5007714;28;20121;-41
2022/08/04 13:06:02;;;;;;;1.90;0.30;;;26.20;85.90;;;;;;5007510;28;20045;-41
2022/08/04 13:08:27;;;;;;;2.15;0.40;;;26.00;86.10;;;;;;5006903;28;20046;-40
2022/08/04 13:10:57;;;;;;;3.58;0.50;;;25.80;86.30;;;;;;5007129;28;20083;-40
2022/08/04 13:13:27;;;;;;;1.27;0.35;;;25.70;86.50;;;;;;5006742;28;20112;-41
2022/08/04 13:16:02;;;;;;;5.32;0.50;;;25.70;87.30;;;;;;5006960;28;20050;-41
2022/08/04 13:18:30;;;;;;;3.22;0.43;;;25.70;88.00;;;;;;5006279;28;20068;-42
2022/08/04 13:21:08;;;;;;;1.75;0.35;;;25.80;87.70;;;;;;5007025;28;20108;-41
2022/08/04 13:23:35;;;;;;;4.95;0.60;;;25.90;88.40;;;;;;5007180;28;20135;-41
2022/08/04 13:26:03;;;;;;;5.22;0.55;;;26.10;88.80;;;;;;5006896;28;20120;-41
2022/08/04 13:28:33;;;;;;;2.03;0.52;;;26.30;88.60;;;;;;5006530;28;20057;-41
2022/08/04 13:31:00;;;;;;;2.33;0.40;;;26.50;88.60;;;;;;5007246;28;20096;-41
2022/08/04 13:33:33;;;;;;;3.55;0.30;;;26.80;87.80;;;;;;5006869;28;20041;-41
2022/08/04 13:36:00;;;;;;;3.88;0.90;;;26.90;87.00;;;;;;5007134;28;20061;-42